sensor_id;sensor_type;location;lat;lon;timestamp;P1;durP1;ratioP1;P2;durP2;ratioP2
40951;SDS011;26682;51.660;19.338;2023-08-24T00:00:22;8.65;;;5.72;;
40951;SDS011;26682;51.660;19.338;2023-08-24T00:03:25;7.25;;;5.75;;
40951;SDS011;26682;51.660;19.338;2023-08-24T00:06:08;6.70;;;4.97;;
40951;SDS011;26682;51.660;19.338;2023-08-24T00:08:51;9.02;;;5.50;;
40951;SDS011;26682;51.660;19.338;2023-08-24T00:11:33;6.47;;;4.80;;
40951;SDS011;26682;51.660;19.338;2023-08-24T00:14:16;6.78;;;4.45;;
40951;SDS011;26682;51.660;19.338;2023-08-24T00:16:59;5.28;;;4.63;;
40951;SDS011;26682;51.660;19.338;2023-08-24T00:19:41;5.72;;;4.13;;
40951;SDS011;26682;51.660;19.338;2023-08-24T00:22:23;6.72;;;4.68;;
40951;SDS011;26682;51.660;19.338;2023-08-24T00:25:07;5.63;;;4.53;;
40951;SDS011;26682;51.660;19.338;2023-08-24T00:27:50;6.88;;;4.88;;
40951;SDS011;26682;51.660;19.338;2023-08-24T00:30:34;6.40;;;4.65;;
40951;SDS011;26682;51.660;19.338;2023-08-24T00:33:17;6.18;;;4.53;;
40951;SDS011;26682;51.660;19.338;2023-08-24T00:36:01;8.05;;;4.55;;
40951;SDS011;26682;51.660;19.338;2023-08-24T00:38:44;7.22;;;4.65;;
40951;SDS011;26682;51.660;19.338;2023-08-24T00:41:28;5.90;;;4.60;;
40951;SDS011;26682;51.660;19.338;2023-08-24T00:44:11;7.05;;;4.90;;
40951;SDS011;26682;51.660;19.338;2023-08-24T00:46:54;7.35;;;4.88;;
40951;SDS011;26682;51.660;19.338;2023-08-24T00:49:36;8.23;;;4.57;;
40951;SDS011;26682;51.660;19.338;2023-08-24T00:52:19;6.38;;;4.50;;
40951;SDS011;26682;51.660;19.338;2023-08-24T00:55:02;6.43;;;4.40;;
40951;SDS011;26682;51.660;19.338;2023-08-24T00:57:44;10.48;;;4.65;;
40951;SDS011;26682;51.660;19.338;2023-08-24T01:00:27;5.97;;;4.63;;
40951;SDS011;26682;51.660;19.338;2023-08-24T01:03:10;7.47;;;4.18;;
40951;SDS011;26682;51.660;19.338;2023-08-24T01:05:53;6.57;;;4.53;;
40951;SDS011;26682;51.660;19.338;2023-08-24T01:08:35;8.98;;;5.10;;
40951;SDS011;26682;51.660;19.338;2023-08-24T01:14:15;9.32;;;4.97;;
40951;SDS011;26682;51.660;19.338;2023-08-24T01:17:23;5.18;;;4.35;;
40951;SDS011;26682;51.660;19.338;2023-08-24T01:20:10;6.70;;;4.60;;
40951;SDS011;26682;51.660;19.338;2023-08-24T01:22:58;5.63;;;4.60;;
40951;SDS011;26682;51.660;19.338;2023-08-24T01:26:17;10.45;;;4.60;;
40951;SDS011;26682;51.660;19.338;2023-08-24T01:29:00;7.63;;;4.70;;
40951;SDS011;26682;51.660;19.338;2023-08-24T01:31:47;6.72;;;4.45;;
40951;SDS011;26682;51.660;19.338;2023-08-24T01:34:31;7.80;;;4.40;;
40951;SDS011;26682;51.660;19.338;2023-08-24T01:37:13;6.85;;;4.68;;
40951;SDS011;26682;51.660;19.338;2023-08-24T01:42:58;6.70;;;4.80;;
40951;SDS011;26682;51.660;19.338;2023-08-24T01:45:45;8.18;;;5.25;;
40951;SDS011;26682;51.660;19.338;2023-08-24T01:48:28;7.22;;;5.03;;
40951;SDS011;26682;51.660;19.338;2023-08-24T01:51:13;10.20;;;4.67;;
40951;SDS011;26682;51.660;19.338;2023-08-24T01:53:58;7.30;;;4.95;;
40951;SDS011;26682;51.660;19.338;2023-08-24T01:56:40;8.68;;;5.03;;
40951;SDS011;26682;51.660;19.338;2023-08-24T01:59:22;7.90;;;4.88;;
40951;SDS011;26682;51.660;19.338;2023-08-24T02:02:05;6.85;;;4.65;;
40951;SDS011;26682;51.660;19.338;2023-08-24T02:04:48;8.43;;;5.50;;
40951;SDS011;26682;51.660;19.338;2023-08-24T02:07:31;7.32;;;4.45;;
40951;SDS011;26682;51.660;19.338;2023-08-24T02:10:14;7.90;;;5.25;;
40951;SDS011;26682;51.660;19.338;2023-08-24T02:12:56;7.88;;;5.30;;
40951;SDS011;26682;51.660;19.338;2023-08-24T02:15:39;7.93;;;5.03;;
40951;SDS011;26682;51.660;19.338;2023-08-24T02:18:22;7.18;;;4.78;;
40951;SDS011;26682;51.660;19.338;2023-08-24T02:21:08;7.15;;;5.30;;
40951;SDS011;26682;51.660;19.338;2023-08-24T02:23:52;9.40;;;5.28;;
40951;SDS011;26682;51.660;19.338;2023-08-24T02:26:34;8.93;;;5.30;;
40951;SDS011;26682;51.660;19.338;2023-08-24T02:29:17;8.00;;;5.30;;
40951;SDS011;26682;51.660;19.338;2023-08-24T02:31:59;7.50;;;5.07;;
40951;SDS011;26682;51.660;19.338;2023-08-24T02:34:42;7.28;;;5.07;;
40951;SDS011;26682;51.660;19.338;2023-08-24T02:37:25;9.90;;;5.20;;
40951;SDS011;26682;51.660;19.338;2023-08-24T02:40:09;8.80;;;5.57;;
40951;SDS011;26682;51.660;19.338;2023-08-24T02:42:51;9.82;;;5.45;;
40951;SDS011;26682;51.660;19.338;2023-08-24T02:45:34;6.53;;;5.25;;
40951;SDS011;26682;51.660;19.338;2023-08-24T02:48:16;9.32;;;5.60;;
40951;SDS011;26682;51.660;19.338;2023-08-24T02:50:59;9.10;;;6.63;;
40951;SDS011;26682;51.660;19.338;2023-08-24T02:53:43;8.00;;;5.38;;
40951;SDS011;26682;51.660;19.338;2023-08-24T02:56:26;9.05;;;6.00;;
40951;SDS011;26682;51.660;19.338;2023-08-24T02:59:08;8.90;;;6.03;;
40951;SDS011;26682;51.660;19.338;2023-08-24T03:01:51;9.45;;;5.50;;
40951;SDS011;26682;51.660;19.338;2023-08-24T03:04:34;8.40;;;5.78;;
40951;SDS011;26682;51.660;19.338;2023-08-24T03:07:17;7.25;;;5.38;;
40951;SDS011;26682;51.660;19.338;2023-08-24T03:10:01;7.68;;;5.65;;
40951;SDS011;26682;51.660;19.338;2023-08-24T03:12:44;7.43;;;5.55;;
40951;SDS011;26682;51.660;19.338;2023-08-24T03:15:26;11.57;;;5.55;;
40951;SDS011;26682;51.660;19.338;2023-08-24T03:18:12;8.90;;;5.75;;
40951;SDS011;26682;51.660;19.338;2023-08-24T03:20:55;11.15;;;5.90;;
40951;SDS011;26682;51.660;19.338;2023-08-24T03:23:38;8.05;;;5.50;;
40951;SDS011;26682;51.660;19.338;2023-08-24T03:26:21;12.07;;;6.30;;
40951;SDS011;26682;51.660;19.338;2023-08-24T03:29:08;8.27;;;5.47;;
40951;SDS011;26682;51.660;19.338;2023-08-24T03:31:51;10.45;;;5.95;;
40951;SDS011;26682;51.660;19.338;2023-08-24T03:34:35;8.45;;;5.70;;
40951;SDS011;26682;51.660;19.338;2023-08-24T03:37:18;10.32;;;5.70;;
40951;SDS011;26682;51.660;19.338;2023-08-24T03:40:01;12.40;;;5.80;;
40951;SDS011;26682;51.660;19.338;2023-08-24T03:42:45;9.43;;;5.78;;
40951;SDS011;26682;51.660;19.338;2023-08-24T03:45:29;8.18;;;6.00;;
40951;SDS011;26682;51.660;19.338;2023-08-24T03:48:12;11.23;;;5.45;;
40951;SDS011;26682;51.660;19.338;2023-08-24T03:50:56;8.80;;;5.78;;
40951;SDS011;26682;51.660;19.338;2023-08-24T03:53:39;15.38;;;5.93;;
40951;SDS011;26682;51.660;19.338;2023-08-24T03:56:22;13.05;;;5.43;;
40951;SDS011;26682;51.660;19.338;2023-08-24T03:59:05;8.32;;;5.30;;
40951;SDS011;26682;51.660;19.338;2023-08-24T04:01:49;9.55;;;5.25;;
40951;SDS011;26682;51.660;19.338;2023-08-24T04:04:32;12.05;;;6.38;;
40951;SDS011;26682;51.660;19.338;2023-08-24T04:07:17;10.00;;;5.43;;
40951;SDS011;26682;51.660;19.338;2023-08-24T04:10:02;10.88;;;5.25;;
40951;SDS011;26682;51.660;19.338;2023-08-24T04:12:48;15.75;;;5.65;;
40951;SDS011;26682;51.660;19.338;2023-08-24T04:15:30;10.85;;;5.35;;
40951;SDS011;26682;51.660;19.338;2023-08-24T04:18:13;9.30;;;5.30;;
40951;SDS011;26682;51.660;19.338;2023-08-24T04:20:55;9.23;;;5.30;;
40951;SDS011;26682;51.660;19.338;2023-08-24T04:23:38;11.82;;;5.15;;
40951;SDS011;26682;51.660;19.338;2023-08-24T04:26:26;10.77;;;5.32;;
40951;SDS011;26682;51.660;19.338;2023-08-24T04:29:09;10.75;;;5.43;;
40951;SDS011;26682;51.660;19.338;2023-08-24T04:31:51;7.88;;;5.30;;
40951;SDS011;26682;51.660;19.338;2023-08-24T04:34:34;10.95;;;5.22;;
40951;SDS011;26682;51.660;19.338;2023-08-24T04:37:16;8.40;;;4.70;;
40951;SDS011;26682;51.660;19.338;2023-08-24T04:39:59;10.48;;;4.78;;
40951;SDS011;26682;51.660;19.338;2023-08-24T04:42:41;9.93;;;5.43;;
40951;SDS011;26682;51.660;19.338;2023-08-24T04:45:24;8.75;;;4.47;;
40951;SDS011;26682;51.660;19.338;2023-08-24T04:48:06;12.38;;;5.22;;
40951;SDS011;26682;51.660;19.338;2023-08-24T04:50:49;11.75;;;4.60;;
40951;SDS011;26682;51.660;19.338;2023-08-24T04:53:32;11.85;;;4.80;;
40951;SDS011;26682;51.660;19.338;2023-08-24T04:56:15;13.00;;;4.80;;
40951;SDS011;26682;51.660;19.338;2023-08-24T04:59:00;9.57;;;4.63;;
40951;SDS011;26682;51.660;19.338;2023-08-24T05:01:45;11.07;;;4.93;;
40951;SDS011;26682;51.660;19.338;2023-08-24T05:04:27;9.45;;;4.45;;
40951;SDS011;26682;51.660;19.338;2023-08-24T05:07:11;6.05;;;4.18;;
40951;SDS011;26682;51.660;19.338;2023-08-24T05:09:54;10.30;;;4.88;;
40951;SDS011;26682;51.660;19.338;2023-08-24T05:12:36;10.52;;;4.18;;
40951;SDS011;26682;51.660;19.338;2023-08-24T05:15:19;7.38;;;3.83;;
40951;SDS011;26682;51.660;19.338;2023-08-24T05:18:02;12.82;;;4.38;;
40951;SDS011;26682;51.660;19.338;2023-08-24T05:20:44;11.45;;;4.60;;
40951;SDS011;26682;51.660;19.338;2023-08-24T05:23:27;9.93;;;4.40;;
40951;SDS011;26682;51.660;19.338;2023-08-24T05:26:09;13.15;;;4.03;;
40951;SDS011;26682;51.660;19.338;2023-08-24T05:28:53;8.68;;;3.72;;
40951;SDS011;26682;51.660;19.338;2023-08-24T05:31:35;8.10;;;4.15;;
40951;SDS011;26682;51.660;19.338;2023-08-24T05:34:18;8.23;;;3.95;;
40951;SDS011;26682;51.660;19.338;2023-08-24T05:37:00;8.43;;;3.75;;
40951;SDS011;26682;51.660;19.338;2023-08-24T05:39:43;12.52;;;3.80;;
40951;SDS011;26682;51.660;19.338;2023-08-24T05:42:26;12.57;;;4.38;;
40951;SDS011;26682;51.660;19.338;2023-08-24T05:45:09;7.82;;;3.78;;
40951;SDS011;26682;51.660;19.338;2023-08-24T05:47:53;5.93;;;3.67;;
40951;SDS011;26682;51.660;19.338;2023-08-24T05:50:37;10.73;;;5.60;;
40951;SDS011;26682;51.660;19.338;2023-08-24T05:53:24;7.57;;;3.83;;
40951;SDS011;26682;51.660;19.338;2023-08-24T05:56:09;8.57;;;4.30;;
40951;SDS011;26682;51.660;19.338;2023-08-24T05:58:59;8.68;;;3.15;;
40951;SDS011;26682;51.660;19.338;2023-08-24T06:01:47;7.97;;;3.60;;
40951;SDS011;26682;51.660;19.338;2023-08-24T06:04:30;10.52;;;3.78;;
40951;SDS011;26682;51.660;19.338;2023-08-24T06:07:13;7.50;;;3.50;;
40951;SDS011;26682;51.660;19.338;2023-08-24T06:09:58;12.65;;;3.35;;
40951;SDS011;26682;51.660;19.338;2023-08-24T06:12:41;5.30;;;3.03;;
40951;SDS011;26682;51.660;19.338;2023-08-24T06:15:25;4.68;;;3.33;;
40951;SDS011;26682;51.660;19.338;2023-08-24T06:18:10;6.87;;;3.23;;
40951;SDS011;26682;51.660;19.338;2023-08-24T06:20:53;9.38;;;3.40;;
40951;SDS011;26682;51.660;19.338;2023-08-24T06:23:36;6.03;;;3.20;;
40951;SDS011;26682;51.660;19.338;2023-08-24T06:26:18;6.53;;;3.40;;
40951;SDS011;26682;51.660;19.338;2023-08-24T06:29:01;10.60;;;3.20;;
40951;SDS011;26682;51.660;19.338;2023-08-24T06:31:48;7.68;;;3.65;;
40951;SDS011;26682;51.660;19.338;2023-08-24T06:34:31;5.68;;;3.95;;
40951;SDS011;26682;51.660;19.338;2023-08-24T06:37:14;8.48;;;4.00;;
40951;SDS011;26682;51.660;19.338;2023-08-24T06:39:56;8.80;;;3.42;;
40951;SDS011;26682;51.660;19.338;2023-08-24T06:42:39;7.25;;;3.60;;
40951;SDS011;26682;51.660;19.338;2023-08-24T06:45:22;10.85;;;3.20;;
40951;SDS011;26682;51.660;19.338;2023-08-24T06:48:05;8.88;;;3.13;;
40951;SDS011;26682;51.660;19.338;2023-08-24T06:50:49;7.97;;;3.60;;
40951;SDS011;26682;51.660;19.338;2023-08-24T06:53:33;8.73;;;3.95;;
40951;SDS011;26682;51.660;19.338;2023-08-24T06:56:15;5.32;;;3.00;;
40951;SDS011;26682;51.660;19.338;2023-08-24T06:58:59;5.88;;;3.72;;
40951;SDS011;26682;51.660;19.338;2023-08-24T07:01:42;8.55;;;3.60;;
40951;SDS011;26682;51.660;19.338;2023-08-24T07:04:29;5.32;;;3.47;;
40951;SDS011;26682;51.660;19.338;2023-08-24T07:07:13;7.57;;;3.38;;
40951;SDS011;26682;51.660;19.338;2023-08-24T07:09:55;8.50;;;3.50;;
40951;SDS011;26682;51.660;19.338;2023-08-24T07:12:39;6.55;;;3.28;;
40951;SDS011;26682;51.660;19.338;2023-08-24T07:15:22;9.27;;;3.25;;
40951;SDS011;26682;51.660;19.338;2023-08-24T07:18:05;8.55;;;3.10;;
40951;SDS011;26682;51.660;19.338;2023-08-24T07:20:49;8.00;;;3.08;;
40951;SDS011;26682;51.660;19.338;2023-08-24T07:23:31;4.25;;;2.80;;
40951;SDS011;26682;51.660;19.338;2023-08-24T07:26:14;6.13;;;3.20;;
40951;SDS011;26682;51.660;19.338;2023-08-24T07:28:57;7.70;;;3.92;;
40951;SDS011;26682;51.660;19.338;2023-08-24T07:31:40;10.35;;;3.33;;
40951;SDS011;26682;51.660;19.338;2023-08-24T07:34:23;7.25;;;2.60;;
40951;SDS011;26682;51.660;19.338;2023-08-24T07:37:05;10.93;;;3.17;;
40951;SDS011;26682;51.660;19.338;2023-08-24T07:39:51;3.80;;;2.83;;
40951;SDS011;26682;51.660;19.338;2023-08-24T07:42:42;6.93;;;3.30;;
40951;SDS011;26682;51.660;19.338;2023-08-24T07:45:26;7.72;;;3.08;;
40951;SDS011;26682;51.660;19.338;2023-08-24T07:48:09;4.72;;;3.30;;
40951;SDS011;26682;51.660;19.338;2023-08-24T07:50:52;8.50;;;3.10;;
40951;SDS011;26682;51.660;19.338;2023-08-24T07:53:34;13.18;;;3.30;;
40951;SDS011;26682;51.660;19.338;2023-08-24T07:56:18;4.05;;;2.88;;
40951;SDS011;26682;51.660;19.338;2023-08-24T07:59:03;7.60;;;3.08;;
40951;SDS011;26682;51.660;19.338;2023-08-24T08:01:47;7.00;;;2.63;;
40951;SDS011;26682;51.660;19.338;2023-08-24T08:04:29;5.45;;;2.55;;
40951;SDS011;26682;51.660;19.338;2023-08-24T08:07:12;6.53;;;2.70;;
40951;SDS011;26682;51.660;19.338;2023-08-24T08:09:54;9.73;;;2.83;;
40951;SDS011;26682;51.660;19.338;2023-08-24T08:12:38;7.13;;;2.78;;
40951;SDS011;26682;51.660;19.338;2023-08-24T08:15:27;8.00;;;2.65;;
40951;SDS011;26682;51.660;19.338;2023-08-24T08:18:10;15.07;;;3.05;;
40951;SDS011;26682;51.660;19.338;2023-08-24T08:20:53;4.95;;;2.30;;
40951;SDS011;26682;51.660;19.338;2023-08-24T08:23:35;8.65;;;2.67;;
40951;SDS011;26682;51.660;19.338;2023-08-24T08:26:18;14.98;;;2.58;;
40951;SDS011;26682;51.660;19.338;2023-08-24T08:29:01;4.10;;;2.63;;
40951;SDS011;26682;51.660;19.338;2023-08-24T08:31:43;2.80;;;2.30;;
40951;SDS011;26682;51.660;19.338;2023-08-24T08:34:26;6.00;;;2.92;;
40951;SDS011;26682;51.660;19.338;2023-08-24T08:37:09;4.50;;;3.05;;
40951;SDS011;26682;51.660;19.338;2023-08-24T08:39:53;9.55;;;3.30;;
40951;SDS011;26682;51.660;19.338;2023-08-24T08:42:39;5.88;;;3.00;;
40951;SDS011;26682;51.660;19.338;2023-08-24T08:45:24;8.40;;;3.00;;
40951;SDS011;26682;51.660;19.338;2023-08-24T08:48:08;5.28;;;2.78;;
40951;SDS011;26682;51.660;19.338;2023-08-24T08:50:52;4.82;;;2.78;;
40951;SDS011;26682;51.660;19.338;2023-08-24T08:53:38;4.03;;;2.50;;
40951;SDS011;26682;51.660;19.338;2023-08-24T08:56:21;6.30;;;2.38;;
40951;SDS011;26682;51.660;19.338;2023-08-24T08:59:04;10.43;;;2.60;;
40951;SDS011;26682;51.660;19.338;2023-08-24T09:01:51;2.42;;;2.10;;
40951;SDS011;26682;51.660;19.338;2023-08-24T09:04:33;4.97;;;2.28;;
40951;SDS011;26682;51.660;19.338;2023-08-24T09:07:16;5.78;;;2.10;;
40951;SDS011;26682;51.660;19.338;2023-08-24T09:09:59;6.72;;;2.53;;
40951;SDS011;26682;51.660;19.338;2023-08-24T09:12:42;6.93;;;1.75;;
40951;SDS011;26682;51.660;19.338;2023-08-24T09:15:25;6.90;;;1.63;;
40951;SDS011;26682;51.660;19.338;2023-08-24T09:18:09;3.00;;;1.50;;
40951;SDS011;26682;51.660;19.338;2023-08-24T09:20:52;4.28;;;1.60;;
40951;SDS011;26682;51.660;19.338;2023-08-24T09:23:35;6.88;;;1.98;;
40951;SDS011;26682;51.660;19.338;2023-08-24T09:29:14;2.50;;;1.90;;
40951;SDS011;26682;51.660;19.338;2023-08-24T09:31:57;6.38;;;1.55;;
40951;SDS011;26682;51.660;19.338;2023-08-24T09:34:40;8.90;;;1.73;;
40951;SDS011;26682;51.660;19.338;2023-08-24T09:37:24;2.63;;;1.30;;
40951;SDS011;26682;51.660;19.338;2023-08-24T09:40:07;4.32;;;1.20;;
40951;SDS011;26682;51.660;19.338;2023-08-24T09:42:50;2.85;;;1.15;;
40951;SDS011;26682;51.660;19.338;2023-08-24T09:45:34;2.92;;;1.55;;
40951;SDS011;26682;51.660;19.338;2023-08-24T09:48:16;3.00;;;1.45;;
40951;SDS011;26682;51.660;19.338;2023-08-24T09:51:00;6.13;;;1.40;;
40951;SDS011;26682;51.660;19.338;2023-08-24T09:53:47;3.20;;;1.35;;
40951;SDS011;26682;51.660;19.338;2023-08-24T09:56:30;11.65;;;2.17;;
40951;SDS011;26682;51.660;19.338;2023-08-24T09:59:16;7.40;;;1.77;;
40951;SDS011;26682;51.660;19.338;2023-08-24T10:02:10;2.60;;;1.40;;
40951;SDS011;26682;51.660;19.338;2023-08-24T10:04:59;3.60;;;1.70;;
40951;SDS011;26682;51.660;19.338;2023-08-24T10:07:43;4.05;;;1.42;;
40951;SDS011;26682;51.660;19.338;2023-08-24T10:10:27;4.50;;;1.38;;
40951;SDS011;26682;51.660;19.338;2023-08-24T10:13:17;7.88;;;1.90;;
40951;SDS011;26682;51.660;19.338;2023-08-24T10:16:05;2.42;;;1.63;;
40951;SDS011;26682;51.660;19.338;2023-08-24T10:18:49;6.20;;;1.60;;
40951;SDS011;26682;51.660;19.338;2023-08-24T10:21:42;3.33;;;1.67;;
40951;SDS011;26682;51.660;19.338;2023-08-24T10:24:26;3.38;;;1.50;;
40951;SDS011;26682;51.660;19.338;2023-08-24T10:27:10;11.35;;;2.47;;
40951;SDS011;26682;51.660;19.338;2023-08-24T10:30:03;3.97;;;1.42;;
40951;SDS011;26682;51.660;19.338;2023-08-24T10:32:45;6.35;;;1.80;;
40951;SDS011;26682;51.660;19.338;2023-08-24T10:35:31;2.95;;;1.67;;
40951;SDS011;26682;51.660;19.338;2023-08-24T10:38:49;4.18;;;1.65;;
40951;SDS011;26682;51.660;19.338;2023-08-24T10:41:27;5.63;;;1.90;;
40951;SDS011;26682;51.660;19.338;2023-08-24T10:49:58;4.15;;;1.80;;
40951;SDS011;26682;51.660;19.338;2023-08-24T10:52:44;4.03;;;1.70;;
40951;SDS011;26682;51.660;19.338;2023-08-24T10:55:27;4.32;;;2.00;;
40951;SDS011;26682;51.660;19.338;2023-08-24T10:58:10;11.50;;;2.00;;
40951;SDS011;26682;51.660;19.338;2023-08-24T11:01:00;4.57;;;2.00;;
40951;SDS011;26682;51.660;19.338;2023-08-24T11:03:51;3.85;;;2.50;;
40951;SDS011;26682;51.660;19.338;2023-08-24T11:09:45;6.30;;;2.63;;
40951;SDS011;26682;51.660;19.338;2023-08-24T11:12:54;3.33;;;1.90;;
40951;SDS011;26682;51.660;19.338;2023-08-24T11:15:46;4.50;;;1.90;;
40951;SDS011;26682;51.660;19.338;2023-08-24T11:18:38;3.95;;;1.67;;
40951;SDS011;26682;51.660;19.338;2023-08-24T11:21:21;2.95;;;1.80;;
40951;SDS011;26682;51.660;19.338;2023-08-24T11:24:05;4.45;;;2.10;;
40951;SDS011;26682;51.660;19.338;2023-08-24T11:26:49;5.75;;;1.75;;
40951;SDS011;26682;51.660;19.338;2023-08-24T11:29:32;3.47;;;1.60;;
40951;SDS011;26682;51.660;19.338;2023-08-24T11:32:15;3.17;;;1.52;;
40951;SDS011;26682;51.660;19.338;2023-08-24T11:35:01;3.60;;;1.80;;
40951;SDS011;26682;51.660;19.338;2023-08-24T11:37:44;3.75;;;1.80;;
40951;SDS011;26682;51.660;19.338;2023-08-24T11:40:37;4.57;;;1.70;;
40951;SDS011;26682;51.660;19.338;2023-08-24T11:43:24;5.32;;;1.80;;
40951;SDS011;26682;51.660;19.338;2023-08-24T11:46:09;2.75;;;1.90;;
40951;SDS011;26682;51.660;19.338;2023-08-24T11:48:52;2.80;;;2.10;;
40951;SDS011;26682;51.660;19.338;2023-08-24T11:51:36;3.72;;;1.90;;
40951;SDS011;26682;51.660;19.338;2023-08-24T11:54:25;3.85;;;2.15;;
40951;SDS011;26682;51.660;19.338;2023-08-24T11:57:08;4.47;;;2.45;;
40951;SDS011;26682;51.660;19.338;2023-08-24T11:59:54;4.07;;;2.08;;
40951;SDS011;26682;51.660;19.338;2023-08-24T12:02:37;5.10;;;2.15;;
40951;SDS011;26682;51.660;19.338;2023-08-24T12:05:21;4.88;;;2.20;;
40951;SDS011;26682;51.660;19.338;2023-08-24T12:08:07;2.45;;;1.98;;
40951;SDS011;26682;51.660;19.338;2023-08-24T12:10:53;3.40;;;2.00;;
40951;SDS011;26682;51.660;19.338;2023-08-24T12:13:36;3.80;;;1.90;;
40951;SDS011;26682;51.660;19.338;2023-08-24T12:16:21;5.30;;;2.22;;
40951;SDS011;26682;51.660;19.338;2023-08-24T12:19:07;3.60;;;2.20;;
40951;SDS011;26682;51.660;19.338;2023-08-24T12:21:51;5.82;;;2.35;;
40951;SDS011;26682;51.660;19.338;2023-08-24T12:24:37;4.65;;;1.85;;
40951;SDS011;26682;51.660;19.338;2023-08-24T12:27:25;5.50;;;2.55;;
40951;SDS011;26682;51.660;19.338;2023-08-24T12:30:12;2.42;;;2.10;;
40951;SDS011;26682;51.660;19.338;2023-08-24T12:32:55;3.78;;;2.22;;
40951;SDS011;26682;51.660;19.338;2023-08-24T12:35:41;5.20;;;1.98;;
40951;SDS011;26682;51.660;19.338;2023-08-24T12:38:25;4.45;;;2.22;;
40951;SDS011;26682;51.660;19.338;2023-08-24T12:41:33;2.63;;;2.13;;
40951;SDS011;26682;51.660;19.338;2023-08-24T12:44:16;5.65;;;2.40;;
40951;SDS011;26682;51.660;19.338;2023-08-24T12:46:59;3.50;;;2.40;;
40951;SDS011;26682;51.660;19.338;2023-08-24T12:49:42;4.53;;;2.00;;
40951;SDS011;26682;51.660;19.338;2023-08-24T12:52:25;4.20;;;2.42;;
40951;SDS011;26682;51.660;19.338;2023-08-24T12:55:08;5.18;;;2.30;;
40951;SDS011;26682;51.660;19.338;2023-08-24T12:57:51;3.63;;;1.90;;
40951;SDS011;26682;51.660;19.338;2023-08-24T13:00:35;3.63;;;2.30;;
40951;SDS011;26682;51.660;19.338;2023-08-24T13:03:18;5.75;;;1.90;;
40951;SDS011;26682;51.660;19.338;2023-08-24T13:06:01;4.97;;;2.60;;
40951;SDS011;26682;51.660;19.338;2023-08-24T13:09:04;5.80;;;2.83;;
40951;SDS011;26682;51.660;19.338;2023-08-24T13:11:48;4.90;;;2.38;;
40951;SDS011;26682;51.660;19.338;2023-08-24T13:14:31;6.32;;;2.10;;
40951;SDS011;26682;51.660;19.338;2023-08-24T13:17:14;5.38;;;1.90;;
40951;SDS011;26682;51.660;19.338;2023-08-24T13:19:56;9.15;;;2.53;;
40951;SDS011;26682;51.660;19.338;2023-08-24T13:22:39;3.95;;;1.80;;
40951;SDS011;26682;51.660;19.338;2023-08-24T13:25:22;4.07;;;1.77;;
40951;SDS011;26682;51.660;19.338;2023-08-24T13:28:05;3.00;;;2.03;;
40951;SDS011;26682;51.660;19.338;2023-08-24T13:30:49;6.75;;;1.98;;
40951;SDS011;26682;51.660;19.338;2023-08-24T13:33:56;2.83;;;2.00;;
40951;SDS011;26682;51.660;19.338;2023-08-24T13:36:38;3.40;;;1.98;;
40951;SDS011;26682;51.660;19.338;2023-08-24T13:39:21;4.45;;;1.83;;
40951;SDS011;26682;51.660;19.338;2023-08-24T13:44:56;3.83;;;2.13;;
40951;SDS011;26682;51.660;19.338;2023-08-24T13:47:41;3.15;;;1.60;;
40951;SDS011;26682;51.660;19.338;2023-08-24T13:50:24;3.50;;;1.73;;
40951;SDS011;26682;51.660;19.338;2023-08-24T13:53:06;7.13;;;1.80;;
40951;SDS011;26682;51.660;19.338;2023-08-24T13:55:49;9.23;;;1.90;;
40951;SDS011;26682;51.660;19.338;2023-08-24T13:58:31;6.00;;;2.03;;
40951;SDS011;26682;51.660;19.338;2023-08-24T14:01:14;5.03;;;1.98;;
40951;SDS011;26682;51.660;19.338;2023-08-24T14:03:57;2.90;;;1.88;;
40951;SDS011;26682;51.660;19.338;2023-08-24T14:06:40;5.32;;;1.75;;
40951;SDS011;26682;51.660;19.338;2023-08-24T14:09:22;3.85;;;1.90;;
40951;SDS011;26682;51.660;19.338;2023-08-24T14:12:05;3.08;;;1.80;;
40951;SDS011;26682;51.660;19.338;2023-08-24T14:14:48;4.00;;;1.70;;
40951;SDS011;26682;51.660;19.338;2023-08-24T14:17:31;2.75;;;1.95;;
40951;SDS011;26682;51.660;19.338;2023-08-24T14:20:14;3.05;;;1.83;;
40951;SDS011;26682;51.660;19.338;2023-08-24T14:22:58;9.27;;;2.22;;
40951;SDS011;26682;51.660;19.338;2023-08-24T14:25:40;10.23;;;2.13;;
40951;SDS011;26682;51.660;19.338;2023-08-24T14:28:23;4.40;;;1.75;;
40951;SDS011;26682;51.660;19.338;2023-08-24T14:31:06;3.08;;;2.08;;
40951;SDS011;26682;51.660;19.338;2023-08-24T14:33:49;4.57;;;1.90;;
40951;SDS011;26682;51.660;19.338;2023-08-24T14:36:32;7.43;;;2.60;;
40951;SDS011;26682;51.660;19.338;2023-08-24T14:39:15;3.33;;;1.90;;
40951;SDS011;26682;51.660;19.338;2023-08-24T14:41:57;1.83;;;1.70;;
40951;SDS011;26682;51.660;19.338;2023-08-24T14:44:40;2.45;;;1.77;;
40951;SDS011;26682;51.660;19.338;2023-08-24T14:47:23;5.65;;;1.80;;
40951;SDS011;26682;51.660;19.338;2023-08-24T14:50:06;2.40;;;1.70;;
40951;SDS011;26682;51.660;19.338;2023-08-24T14:52:49;1.83;;;1.30;;
40951;SDS011;26682;51.660;19.338;2023-08-24T14:55:32;5.05;;;1.77;;
40951;SDS011;26682;51.660;19.338;2023-08-24T14:58:16;2.50;;;1.67;;
40951;SDS011;26682;51.660;19.338;2023-08-24T15:01:03;2.03;;;1.70;;
40951;SDS011;26682;51.660;19.338;2023-08-24T15:03:53;5.18;;;1.65;;
40951;SDS011;26682;51.660;19.338;2023-08-24T15:06:35;2.60;;;1.30;;
40951;SDS011;26682;51.660;19.338;2023-08-24T15:09:18;4.85;;;1.55;;
40951;SDS011;26682;51.660;19.338;2023-08-24T15:12:01;6.38;;;2.15;;
40951;SDS011;26682;51.660;19.338;2023-08-24T15:15:17;3.83;;;2.03;;
40951;SDS011;26682;51.660;19.338;2023-08-24T15:17:53;2.67;;;1.58;;
40951;SDS011;26682;51.660;19.338;2023-08-24T15:20:36;4.50;;;2.08;;
40951;SDS011;26682;51.660;19.338;2023-08-24T15:23:20;5.90;;;2.33;;
40951;SDS011;26682;51.660;19.338;2023-08-24T15:26:06;3.60;;;2.00;;
40951;SDS011;26682;51.660;19.338;2023-08-24T15:29:07;4.00;;;1.85;;
40951;SDS011;26682;51.660;19.338;2023-08-24T15:31:51;5.55;;;1.80;;
40951;SDS011;26682;51.660;19.338;2023-08-24T15:34:45;5.10;;;1.80;;
40951;SDS011;26682;51.660;19.338;2023-08-24T15:37:31;3.67;;;1.90;;
40951;SDS011;26682;51.660;19.338;2023-08-24T15:40:14;5.10;;;1.70;;
40951;SDS011;26682;51.660;19.338;2023-08-24T15:42:58;6.93;;;1.67;;
40951;SDS011;26682;51.660;19.338;2023-08-24T15:45:43;2.42;;;1.50;;
40951;SDS011;26682;51.660;19.338;2023-08-24T15:48:25;3.55;;;2.15;;
40951;SDS011;26682;51.660;19.338;2023-08-24T15:51:08;4.85;;;1.60;;
40951;SDS011;26682;51.660;19.338;2023-08-24T15:53:51;3.78;;;2.08;;
40951;SDS011;26682;51.660;19.338;2023-08-24T15:56:42;6.85;;;3.70;;
40951;SDS011;26682;51.660;19.338;2023-08-24T15:59:27;5.80;;;3.13;;
40951;SDS011;26682;51.660;19.338;2023-08-24T16:02:10;6.20;;;2.22;;
40951;SDS011;26682;51.660;19.338;2023-08-24T16:04:58;6.50;;;1.45;;
40951;SDS011;26682;51.660;19.338;2023-08-24T16:07:41;6.03;;;1.90;;
40951;SDS011;26682;51.660;19.338;2023-08-24T16:10:25;4.93;;;1.50;;
40951;SDS011;26682;51.660;19.338;2023-08-24T16:13:08;3.38;;;2.05;;
40951;SDS011;26682;51.660;19.338;2023-08-24T16:15:52;5.63;;;2.13;;
40951;SDS011;26682;51.660;19.338;2023-08-24T16:18:35;2.60;;;1.50;;
40951;SDS011;26682;51.660;19.338;2023-08-24T16:21:17;4.15;;;1.50;;
40951;SDS011;26682;51.660;19.338;2023-08-24T16:24:00;5.90;;;1.90;;
40951;SDS011;26682;51.660;19.338;2023-08-24T16:26:43;3.70;;;1.60;;
40951;SDS011;26682;51.660;19.338;2023-08-24T16:29:27;5.43;;;2.17;;
40951;SDS011;26682;51.660;19.338;2023-08-24T16:32:10;3.42;;;1.98;;
40951;SDS011;26682;51.660;19.338;2023-08-24T16:34:54;2.97;;;2.50;;